sensor_id;sensor_type;location;lat;lon;timestamp;pressure;altitude;pressure_sealevel;temperature;humidity
26083;BME280;13848;49.018;12.078;2023-03-04T00:00:58;98007.28;;;3.42;53.28
26083;BME280;13848;49.018;12.078;2023-03-04T00:03:24;98006.44;;;3.34;53.87
26083;BME280;13848;49.018;12.078;2023-03-04T00:05:51;98004.59;;;3.34;53.28
26083;BME280;13848;49.018;12.078;2023-03-04T00:08:18;98006.63;;;3.32;53.71
26083;BME280;13848;49.018;12.078;2023-03-04T00:10:43;97999.94;;;3.28;53.71
26083;BME280;13848;49.018;12.078;2023-03-04T00:13:10;98002.13;;;3.16;54.86
26083;BME280;13848;49.018;12.078;2023-03-04T00:15:36;98006.63;;;3.16;54.20
26083;BME280;13848;49.018;12.078;2023-03-04T00:18:02;98000.47;;;3.15;54.68
26083;BME280;13848;49.018;12.078;2023-03-04T00:20:28;98008.94;;;3.11;55.50
26083;BME280;13848;49.018;12.078;2023-03-04T00:22:55;98013.94;;;2.98;55.37
26083;BME280;13848;49.018;12.078;2023-03-04T00:25:21;98002.97;;;2.92;55.77
26083;BME280;13848;49.018;12.078;2023-03-04T00:27:47;98009.63;;;3.05;54.61
26083;BME280;13848;49.018;12.078;2023-03-04T00:30:13;98007.28;;;2.93;54.70
26083;BME280;13848;49.018;12.078;2023-03-04T00:32:39;98007.78;;;2.89;54.64
26083;BME280;13848;49.018;12.078;2023-03-04T00:35:05;98005.94;;;2.89;55.53
26083;BME280;13848;49.018;12.078;2023-03-04T00:37:32;98003.97;;;3.00;55.65
26083;BME280;13848;49.018;12.078;2023-03-04T00:39:59;98008.63;;;2.98;55.63
26083;BME280;13848;49.018;12.078;2023-03-04T00:42:26;98003.31;;;2.98;55.58
26083;BME280;13848;49.018;12.078;2023-03-04T00:44:51;97999.78;;;2.89;56.30
26083;BME280;13848;49.018;12.078;2023-03-04T00:47:17;97996.31;;;2.97;56.10
26083;BME280;13848;49.018;12.078;2023-03-04T00:49:43;97999.78;;;2.89;56.38
26083;BME280;13848;49.018;12.078;2023-03-04T00:52:09;98001.28;;;2.83;56.04
26083;BME280;13848;49.018;12.078;2023-03-04T00:54:35;97998.63;;;2.83;57.07
26083;BME280;13848;49.018;12.078;2023-03-04T00:57:03;98001.31;;;2.91;57.00
26083;BME280;13848;49.018;12.078;2023-03-04T00:59:28;97994.94;;;2.76;57.52
26083;BME280;13848;49.018;12.078;2023-03-04T01:01:54;97991.78;;;2.64;57.90
26083;BME280;13848;49.018;12.078;2023-03-04T01:04:20;97998.28;;;2.78;60.98
26083;BME280;13848;49.018;12.078;2023-03-04T01:06:46;97993.81;;;3.03;57.51
26083;BME280;13848;49.018;12.078;2023-03-04T01:09:12;97987.28;;;2.65;57.30
26083;BME280;13848;49.018;12.078;2023-03-04T01:11:38;97982.97;;;2.56;57.31
26083;BME280;13848;49.018;12.078;2023-03-04T01:14:05;97990.06;;;2.39;57.60
26083;BME280;13848;49.018;12.078;2023-03-04T01:16:31;97981.75;;;2.42;57.94
26083;BME280;13848;49.018;12.078;2023-03-04T01:18:57;97982.56;;;2.43;58.03
26083;BME280;13848;49.018;12.078;2023-03-04T01:21:23;97984.09;;;2.53;57.39
26083;BME280;13848;49.018;12.078;2023-03-04T01:23:52;97984.59;;;2.40;57.50
26083;BME280;13848;49.018;12.078;2023-03-04T01:26:18;97988.91;;;2.33;58.24
26083;BME280;13848;49.018;12.078;2023-03-04T01:28:44;97984.22;;;2.27;57.69
26083;BME280;13848;49.018;12.078;2023-03-04T01:31:12;97973.41;;;2.37;57.87
26083;BME280;13848;49.018;12.078;2023-03-04T01:33:37;97979.25;;;2.40;58.67
26083;BME280;13848;49.018;12.078;2023-03-04T01:36:04;97975.41;;;2.27;57.90
26083;BME280;13848;49.018;12.078;2023-03-04T01:38:30;97979.16;;;2.08;58.03
26083;BME280;13848;49.018;12.078;2023-03-04T01:40:56;97977.03;;;2.20;58.12
26083;BME280;13848;49.018;12.078;2023-03-04T01:43:24;97970.22;;;2.17;58.24
26083;BME280;13848;49.018;12.078;2023-03-04T01:45:55;97980.75;;;2.35;61.27
26083;BME280;13848;49.018;12.078;2023-03-04T01:48:30;97961.19;;;2.69;59.48
26083;BME280;13848;49.018;12.078;2023-03-04T01:50:56;97969.66;;;2.56;58.63
26083;BME280;13848;49.018;12.078;2023-03-04T01:53:24;97977.59;;;2.39;58.82
26083;BME280;13848;49.018;12.078;2023-03-04T01:55:51;97971.75;;;2.28;59.38
26083;BME280;13848;49.018;12.078;2023-03-04T01:58:17;97969.56;;;2.23;58.94
26083;BME280;13848;49.018;12.078;2023-03-04T02:00:43;97962.94;;;2.27;58.22
26083;BME280;13848;49.018;12.078;2023-03-04T02:03:12;97966.59;;;2.26;58.27
26083;BME280;13848;49.018;12.078;2023-03-04T02:05:42;97959.25;;;2.20;58.95
26083;BME280;13848;49.018;12.078;2023-03-04T02:08:09;97962.19;;;2.01;58.59
26083;BME280;13848;49.018;12.078;2023-03-04T02:10:37;97968.84;;;2.05;58.86
26083;BME280;13848;49.018;12.078;2023-03-04T02:13:03;97964.53;;;2.12;58.79
26083;BME280;13848;49.018;12.078;2023-03-04T02:15:30;97958.22;;;2.05;59.14
26083;BME280;13848;49.018;12.078;2023-03-04T02:17:56;97959.88;;;2.06;58.38
26083;BME280;13848;49.018;12.078;2023-03-04T02:20:30;97961.88;;;2.04;59.11
26083;BME280;13848;49.018;12.078;2023-03-04T02:23:05;97963.84;;;2.02;59.30
26083;BME280;13848;49.018;12.078;2023-03-04T02:25:38;97960.16;;;1.95;59.81
26083;BME280;13848;49.018;12.078;2023-03-04T02:28:08;97963.50;;;1.97;59.52
26083;BME280;13848;49.018;12.078;2023-03-04T02:30:35;97966.78;;;1.91;59.88
26083;BME280;13848;49.018;12.078;2023-03-04T02:33:01;97959.09;;;1.79;60.59
26083;BME280;13848;49.018;12.078;2023-03-04T02:35:42;97969.44;;;1.82;59.83
26083;BME280;13848;49.018;12.078;2023-03-04T02:38:08;97967.44;;;1.84;60.18
26083;BME280;13848;49.018;12.078;2023-03-04T02:40:35;97957.13;;;1.81;60.15
26083;BME280;13848;49.018;12.078;2023-03-04T02:43:02;97962.13;;;1.84;59.89
26083;BME280;13848;49.018;12.078;2023-03-04T02:45:41;97952.13;;;1.78;59.78
26083;BME280;13848;49.018;12.078;2023-03-04T02:48:08;97949.56;;;1.60;59.62
26083;BME280;13848;49.018;12.078;2023-03-04T02:50:37;97949.81;;;1.49;60.25
26083;BME280;13848;49.018;12.078;2023-03-04T02:53:04;97954.84;;;1.52;60.54
26083;BME280;13848;49.018;12.078;2023-03-04T02:55:31;97945.69;;;1.55;60.85
26083;BME280;13848;49.018;12.078;2023-03-04T02:57:57;97951.00;;;1.55;61.47
26083;BME280;13848;49.018;12.078;2023-03-04T03:00:24;97944.75;;;1.64;61.44
26083;BME280;13848;49.018;12.078;2023-03-04T03:02:51;97951.38;;;1.60;60.51
26083;BME280;13848;49.018;12.078;2023-03-04T03:05:17;97955.19;;;1.57;61.46
26083;BME280;13848;49.018;12.078;2023-03-04T03:07:44;97949.06;;;1.57;60.93
26083;BME280;13848;49.018;12.078;2023-03-04T03:10:10;97944.03;;;1.54;59.99
26083;BME280;13848;49.018;12.078;2023-03-04T03:12:36;97942.03;;;1.56;60.29
26083;BME280;13848;49.018;12.078;2023-03-04T03:15:03;97949.34;;;1.54;61.40
26083;BME280;13848;49.018;12.078;2023-03-04T03:17:29;97949.31;;;1.46;61.59
26083;BME280;13848;49.018;12.078;2023-03-04T03:19:56;97944.69;;;1.48;60.34
26083;BME280;13848;49.018;12.078;2023-03-04T03:22:22;97939.66;;;1.45;61.13
26083;BME280;13848;49.018;12.078;2023-03-04T03:24:49;97952.66;;;1.48;61.54
26083;BME280;13848;49.018;12.078;2023-03-04T03:27:15;97943.66;;;1.41;61.39
26083;BME280;13848;49.018;12.078;2023-03-04T03:29:40;97946.78;;;1.36;62.43
26083;BME280;13848;49.018;12.078;2023-03-04T03:32:07;97946.03;;;1.26;60.77
26083;BME280;13848;49.018;12.078;2023-03-04T03:34:33;97940.22;;;1.22;60.50
26083;BME280;13848;49.018;12.078;2023-03-04T03:37:00;97947.19;;;1.23;61.64
26083;BME280;13848;49.018;12.078;2023-03-04T03:39:26;97944.22;;;1.26;62.68
26083;BME280;13848;49.018;12.078;2023-03-04T03:41:52;97938.91;;;1.26;61.76
26083;BME280;13848;49.018;12.078;2023-03-04T03:44:18;97944.06;;;1.28;62.10
26083;BME280;13848;49.018;12.078;2023-03-04T03:46:44;97937.25;;;1.25;63.10
26083;BME280;13848;49.018;12.078;2023-03-04T03:49:12;97935.84;;;1.13;62.46
26083;BME280;13848;49.018;12.078;2023-03-04T03:51:38;97941.56;;;1.00;63.03
26083;BME280;13848;49.018;12.078;2023-03-04T03:54:06;97934.88;;;0.96;63.42
26083;BME280;13848;49.018;12.078;2023-03-04T03:56:32;97933.53;;;0.92;63.66
26083;BME280;13848;49.018;12.078;2023-03-04T03:58:58;97925.47;;;1.02;62.79
26083;BME280;13848;49.018;12.078;2023-03-04T04:01:24;97926.50;;;1.09;63.71
26083;BME280;13848;49.018;12.078;2023-03-04T04:03:50;97932.06;;;0.98;63.62
26083;BME280;13848;49.018;12.078;2023-03-04T04:06:16;97934.47;;;0.83;64.17
26083;BME280;13848;49.018;12.078;2023-03-04T04:08:43;97931.84;;;0.91;64.66
26083;BME280;13848;49.018;12.078;2023-03-04T04:11:11;97931.69;;;0.93;64.12
26083;BME280;13848;49.018;12.078;2023-03-04T04:13:37;97929.75;;;0.95;63.33
26083;BME280;13848;49.018;12.078;2023-03-04T04:16:04;97928.00;;;0.86;64.55
26083;BME280;13848;49.018;12.078;2023-03-04T04:18:30;97933.88;;;0.71;64.88
26083;BME280;13848;49.018;12.078;2023-03-04T04:20:56;97937.66;;;0.69;64.36
26083;BME280;13848;49.018;12.078;2023-03-04T04:23:22;97927.63;;;0.80;64.61
26083;BME280;13848;49.018;12.078;2023-03-04T04:25:48;97929.31;;;0.82;63.76
26083;BME280;13848;49.018;12.078;2023-03-04T04:28:15;97941.06;;;0.79;64.24
26083;BME280;13848;49.018;12.078;2023-03-04T04:30:41;97938.72;;;0.76;63.84
26083;BME280;13848;49.018;12.078;2023-03-04T04:33:08;97936.81;;;0.68;64.14
26083;BME280;13848;49.018;12.078;2023-03-04T04:35:35;97938.59;;;0.60;64.71
26083;BME280;13848;49.018;12.078;2023-03-04T04:38:01;97940.78;;;0.64;64.47
26083;BME280;13848;49.018;12.078;2023-03-04T04:40:27;97938.81;;;0.66;64.25
26083;BME280;13848;49.018;12.078;2023-03-04T04:42:53;97936.44;;;0.63;64.58
26083;BME280;13848;49.018;12.078;2023-03-04T04:45:20;97933.13;;;0.61;65.29
26083;BME280;13848;49.018;12.078;2023-03-04T04:47:46;97931.75;;;0.57;64.68
26083;BME280;13848;49.018;12.078;2023-03-04T04:50:12;97940.25;;;0.61;65.07
26083;BME280;13848;49.018;12.078;2023-03-04T04:52:38;97941.41;;;0.58;64.50
26083;BME280;13848;49.018;12.078;2023-03-04T04:55:05;97940.19;;;0.52;65.33
26083;BME280;13848;49.018;12.078;2023-03-04T04:57:32;97938.97;;;0.47;65.04
26083;BME280;13848;49.018;12.078;2023-03-04T04:59:58;97942.69;;;0.54;64.66
26083;BME280;13848;49.018;12.078;2023-03-04T05:02:25;97937.59;;;0.43;65.15
26083;BME280;13848;49.018;12.078;2023-03-04T05:04:51;97934.50;;;0.47;65.07
26083;BME280;13848;49.018;12.078;2023-03-04T05:07:17;97938.38;;;0.53;64.62
26083;BME280;13848;49.018;12.078;2023-03-04T05:09:43;97945.00;;;0.57;64.61
26083;BME280;13848;49.018;12.078;2023-03-04T05:12:09;97939.81;;;0.47;65.59
26083;BME280;13848;49.018;12.078;2023-03-04T05:14:35;97938.22;;;0.37;64.93
26083;BME280;13848;49.018;12.078;2023-03-04T05:17:01;97933.28;;;0.42;65.45
26083;BME280;13848;49.018;12.078;2023-03-04T05:19:28;97931.25;;;0.36;65.23
26083;BME280;13848;49.018;12.078;2023-03-04T05:21:54;97942.47;;;0.30;65.66
26083;BME280;13848;49.018;12.078;2023-03-04T05:24:20;97944.13;;;0.31;66.13
26083;BME280;13848;49.018;12.078;2023-03-04T05:26:46;97944.34;;;0.37;65.58
26083;BME280;13848;49.018;12.078;2023-03-04T05:29:12;97948.00;;;0.36;66.45
26083;BME280;13848;49.018;12.078;2023-03-04T05:31:38;97946.16;;;0.37;65.64
26083;BME280;13848;49.018;12.078;2023-03-04T05:34:04;97956.41;;;0.32;65.22
26083;BME280;13848;49.018;12.078;2023-03-04T05:36:31;97957.06;;;0.16;65.91
26083;BME280;13848;49.018;12.078;2023-03-04T05:38:57;97960.13;;;0.11;66.17
26083;BME280;13848;49.018;12.078;2023-03-04T05:41:23;97955.53;;;0.13;67.07
26083;BME280;13848;49.018;12.078;2023-03-04T05:43:49;97951.69;;;0.25;65.68
26083;BME280;13848;49.018;12.078;2023-03-04T05:46:16;97961.97;;;0.29;66.21
26083;BME280;13848;49.018;12.078;2023-03-04T05:48:43;97957.81;;;0.26;65.73
26083;BME280;13848;49.018;12.078;2023-03-04T05:51:09;97952.97;;;0.21;65.80
26083;BME280;13848;49.018;12.078;2023-03-04T05:53:36;97951.38;;;0.29;66.32
26083;BME280;13848;49.018;12.078;2023-03-04T05:56:06;97960.72;;;0.33;66.21
26083;BME280;13848;49.018;12.078;2023-03-04T05:58:32;97960.03;;;0.31;66.15
26083;BME280;13848;49.018;12.078;2023-03-04T06:00:59;97972.13;;;0.15;66.15
26083;BME280;13848;49.018;12.078;2023-03-04T06:03:25;97975.44;;;0.17;66.86
26083;BME280;13848;49.018;12.078;2023-03-04T06:05:52;97976.75;;;0.13;66.71
26083;BME280;13848;49.018;12.078;2023-03-04T06:08:18;97977.75;;;0.12;66.32
26083;BME280;13848;49.018;12.078;2023-03-04T06:10:45;97982.13;;;0.21;66.29
26083;BME280;13848;49.018;12.078;2023-03-04T06:13:11;97977.59;;;0.32;65.85
26083;BME280;13848;49.018;12.078;2023-03-04T06:15:38;97977.28;;;0.35;65.74
26083;BME280;13848;49.018;12.078;2023-03-04T06:18:05;97981.16;;;0.40;66.29
26083;BME280;13848;49.018;12.078;2023-03-04T06:20:31;97985.63;;;0.40;66.36
26083;BME280;13848;49.018;12.078;2023-03-04T06:22:57;97988.91;;;0.51;65.67
26083;BME280;13848;49.018;12.078;2023-03-04T06:25:24;97984.69;;;0.59;65.54
26083;BME280;13848;49.018;12.078;2023-03-04T06:27:51;97989.66;;;0.62;65.57
26083;BME280;13848;49.018;12.078;2023-03-04T06:30:17;97998.06;;;0.57;66.09
26083;BME280;13848;49.018;12.078;2023-03-04T06:32:43;98002.16;;;0.69;65.39
26083;BME280;13848;49.018;12.078;2023-03-04T06:35:09;98008.22;;;0.44;66.58
26083;BME280;13848;49.018;12.078;2023-03-04T06:37:36;98011.66;;;0.72;65.78
26083;BME280;13848;49.018;12.078;2023-03-04T06:40:02;98013.16;;;0.92;64.93
26083;BME280;13848;49.018;12.078;2023-03-04T06:42:28;98010.13;;;1.05;65.10
26083;BME280;13848;49.018;12.078;2023-03-04T06:44:55;98021.09;;;1.10;65.20
26083;BME280;13848;49.018;12.078;2023-03-04T06:47:21;98023.50;;;1.21;65.02
26083;BME280;13848;49.018;12.078;2023-03-04T06:49:47;98021.06;;;1.46;64.35
26083;BME280;13848;49.018;12.078;2023-03-04T06:52:13;98023.44;;;1.57;63.58
26083;BME280;13848;49.018;12.078;2023-03-04T06:54:39;98032.59;;;1.89;63.77
26083;BME280;13848;49.018;12.078;2023-03-04T06:57:06;98028.00;;;1.99;62.32
26083;BME280;13848;49.018;12.078;2023-03-04T06:59:32;98026.44;;;2.22;62.26
26083;BME280;13848;49.018;12.078;2023-03-04T07:01:59;98033.34;;;2.57;62.78
26083;BME280;13848;49.018;12.078;2023-03-04T07:04:25;98035.75;;;2.85;61.51
26083;BME280;13848;49.018;12.078;2023-03-04T07:06:51;98036.59;;;2.85;61.32
26083;BME280;13848;49.018;12.078;2023-03-04T07:09:17;98037.75;;;3.15;61.25
26083;BME280;13848;49.018;12.078;2023-03-04T07:11:44;98045.94;;;3.38;59.90
26083;BME280;13848;49.018;12.078;2023-03-04T07:14:10;98039.88;;;3.69;59.40
26083;BME280;13848;49.018;12.078;2023-03-04T07:16:36;98046.84;;;3.94;59.05
26083;BME280;13848;49.018;12.078;2023-03-04T07:19:03;98042.03;;;3.90;58.47
26083;BME280;13848;49.018;12.078;2023-03-04T07:21:29;98048.88;;;3.84;58.56
26083;BME280;13848;49.018;12.078;2023-03-04T07:23:55;98046.53;;;3.89;58.03
26083;BME280;13848;49.018;12.078;2023-03-04T07:26:22;98060.88;;;3.72;59.33
26083;BME280;13848;49.018;12.078;2023-03-04T07:28:47;98066.56;;;3.61;58.57
26083;BME280;13848;49.018;12.078;2023-03-04T07:31:20;98064.03;;;2.94;58.92
26083;BME280;13848;49.018;12.078;2023-03-04T07:33:47;98067.50;;;2.78;59.22
26083;BME280;13848;49.018;12.078;2023-03-04T07:36:15;98074.81;;;2.68;59.98
26083;BME280;13848;49.018;12.078;2023-03-04T07:38:42;98072.03;;;2.35;60.07
26083;BME280;13848;49.018;12.078;2023-03-04T07:41:08;98079.06;;;2.10;61.37
26083;BME280;13848;49.018;12.078;2023-03-04T07:43:34;98077.91;;;2.13;60.79
26083;BME280;13848;49.018;12.078;2023-03-04T07:46:00;98094.03;;;1.85;61.22
26083;BME280;13848;49.018;12.078;2023-03-04T07:48:27;98088.16;;;2.00;61.02
26083;BME280;13848;49.018;12.078;2023-03-04T07:51:07;98092.75;;;1.90;61.58
26083;BME280;13848;49.018;12.078;2023-03-04T07:53:35;98089.91;;;1.91;61.34
26083;BME280;13848;49.018;12.078;2023-03-04T07:56:02;98089.50;;;1.78;61.43
26083;BME280;13848;49.018;12.078;2023-03-04T07:58:33;98085.47;;;1.92;61.62
26083;BME280;13848;49.018;12.078;2023-03-04T08:00:58;98092.56;;;2.17;61.28
26083;BME280;13848;49.018;12.078;2023-03-04T08:03:25;98087.16;;;2.01;61.63
26083;BME280;13848;49.018;12.078;2023-03-04T08:05:51;98090.97;;;1.72;61.19
26083;BME280;13848;49.018;12.078;2023-03-04T08:08:16;98092.00;;;1.79;61.09
26083;BME280;13848;49.018;12.078;2023-03-04T08:10:44;98101.09;;;1.69;62.30
26083;BME280;13848;49.018;12.078;2023-03-04T08:13:10;98102.63;;;1.53;62.57
26083;BME280;13848;49.018;12.078;2023-03-04T08:15:39;98105.03;;;1.65;62.27
26083;BME280;13848;49.018;12.078;2023-03-04T08:18:06;98099.66;;;1.56;62.03
26083;BME280;13848;49.018;12.078;2023-03-04T08:20:31;98106.28;;;1.52;62.93
26083;BME280;13848;49.018;12.078;2023-03-04T08:22:57;98106.88;;;1.64;62.08
26083;BME280;13848;49.018;12.078;2023-03-04T08:25:23;98107.16;;;1.61;62.32
26083;BME280;13848;49.018;12.078;2023-03-04T08:27:51;98100.69;;;1.81;62.06
26083;BME280;13848;49.018;12.078;2023-03-04T08:30:17;98114.25;;;1.78;62.71
26083;BME280;13848;49.018;12.078;2023-03-04T08:32:43;98108.25;;;1.68;61.71
26083;BME280;13848;49.018;12.078;2023-03-04T08:35:09;98103.94;;;1.31;63.49
26083;BME280;13848;49.018;12.078;2023-03-04T08:37:35;98112.09;;;1.12;63.29
26083;BME280;13848;49.018;12.078;2023-03-04T08:40:01;98106.69;;;1.40;62.71
26083;BME280;13848;49.018;12.078;2023-03-04T08:42:26;98106.69;;;1.40;62.65
26083;BME280;13848;49.018;12.078;2023-03-04T08:44:54;98108.84;;;1.44;62.79
26083;BME280;13848;49.018;12.078;2023-03-04T08:47:20;98105.44;;;1.52;62.76
26083;BME280;13848;49.018;12.078;2023-03-04T08:49:46;98102.84;;;1.60;63.24
26083;BME280;13848;49.018;12.078;2023-03-04T08:52:11;98104.13;;;1.56;62.56
26083;BME280;13848;49.018;12.078;2023-03-04T08:54:37;98106.63;;;1.75;62.43
26083;BME280;13848;49.018;12.078;2023-03-04T08:57:03;98102.63;;;1.79;62.10
26083;BME280;13848;49.018;12.078;2023-03-04T08:59:29;98101.09;;;1.95;62.22
26083;BME280;13848;49.018;12.078;2023-03-04T09:01:56;98101.41;;;1.92;62.87
26083;BME280;13848;49.018;12.078;2023-03-04T09:04:22;98104.59;;;1.69;63.31
26083;BME280;13848;49.018;12.078;2023-03-04T09:06:48;98109.78;;;1.79;62.96
26083;BME280;13848;49.018;12.078;2023-03-04T09:09:14;98112.22;;;1.72;61.92
26083;BME280;13848;49.018;12.078;2023-03-04T09:11:40;98112.00;;;1.40;63.11
26083;BME280;13848;49.018;12.078;2023-03-04T09:14:06;98112.72;;;1.50;63.45
26083;BME280;13848;49.018;12.078;2023-03-04T09:16:32;98105.66;;;1.84;62.46
26083;BME280;13848;49.018;12.078;2023-03-04T09:19:00;98104.28;;;1.98;62.94
26083;BME280;13848;49.018;12.078;2023-03-04T09:21:26;98109.03;;;1.86;62.06
26083;BME280;13848;49.018;12.078;2023-03-04T09:23:52;98114.63;;;1.83;63.10
26083;BME280;13848;49.018;12.078;2023-03-04T09:26:21;98106.53;;;1.67;62.63
26083;BME280;13848;49.018;12.078;2023-03-04T09:28:49;98108.69;;;1.64;63.12
26083;BME280;13848;49.018;12.078;2023-03-04T09:31:15;98110.16;;;1.58;63.88
26083;BME280;13848;49.018;12.078;2023-03-04T09:33:41;98111.88;;;1.49;63.94
26083;BME280;13848;49.018;12.078;2023-03-04T09:36:11;98109.69;;;1.45;63.71
26083;BME280;13848;49.018;12.078;2023-03-04T09:38:38;98114.53;;;1.67;63.24
26083;BME280;13848;49.018;12.078;2023-03-04T09:41:06;98121.19;;;1.71;63.71
26083;BME280;13848;49.018;12.078;2023-03-04T09:43:32;98107.69;;;1.91;62.46
26083;BME280;13848;49.018;12.078;2023-03-04T09:46:02;98113.19;;;1.63;62.58
26083;BME280;13848;49.018;12.078;2023-03-04T09:48:34;98122.66;;;1.66;62.33
26083;BME280;13848;49.018;12.078;2023-03-04T09:51:16;98121.94;;;1.81;62.62
26083;BME280;13848;49.018;12.078;2023-03-04T09:53:48;98124.53;;;1.73;62.73
26083;BME280;13848;49.018;12.078;2023-03-04T09:56:18;98130.16;;;1.70;63.03
26083;BME280;13848;49.018;12.078;2023-03-04T09:58:52;98127.25;;;1.81;62.15
26083;BME280;13848;49.018;12.078;2023-03-04T10:01:25;98124.59;;;1.81;62.51
26083;BME280;13848;49.018;12.078;2023-03-04T10:03:58;98125.09;;;1.59;62.93
26083;BME280;13848;49.018;12.078;2023-03-04T10:06:30;98120.59;;;1.77;63.38
26083;BME280;13848;49.018;12.078;2023-03-04T10:08:59;98124.94;;;1.60;63.31
26083;BME280;13848;49.018;12.078;2023-03-04T10:11:29;98120.78;;;1.58;63.22
26083;BME280;13848;49.018;12.078;2023-03-04T10:14:08;98118.38;;;1.73;63.80
26083;BME280;13848;49.018;12.078;2023-03-04T10:16:40;98122.19;;;3.15;65.82
26083;BME280;13848;49.018;12.078;2023-03-04T10:19:22;98119.28;;;2.42;61.32
26083;BME280;13848;49.018;12.078;2023-03-04T10:21:51;98114.78;;;2.08;61.96
26083;BME280;13848;49.018;12.078;2023-03-04T10:24:19;98110.25;;;2.00;62.86
26083;BME280;13848;49.018;12.078;2023-03-04T10:26:49;98119.38;;;1.72;63.47
26083;BME280;13848;49.018;12.078;2023-03-04T10:29:18;98114.97;;;1.80;62.65
26083;BME280;13848;49.018;12.078;2023-03-04T10:31:44;98117.38;;;1.74;62.96
26083;BME280;13848;49.018;12.078;2023-03-04T10:34:12;98126.09;;;1.84;62.84
26083;BME280;13848;49.018;12.078;2023-03-04T10:36:46;98122.97;;;1.89;63.15
26083;BME280;13848;49.018;12.078;2023-03-04T10:39:18;98124.44;;;1.57;63.66
26083;BME280;13848;49.018;12.078;2023-03-04T10:41:54;98118.13;;;1.58;63.65
26083;BME280;13848;49.018;12.078;2023-03-04T10:44:21;98119.94;;;1.57;63.38
26083;BME280;13848;49.018;12.078;2023-03-04T10:46:48;98121.19;;;1.71;63.71
26083;BME280;13848;49.018;12.078;2023-03-04T10:49:16;98120.59;;;1.77;63.48
26083;BME280;13848;49.018;12.078;2023-03-04T10:51:44;98123.31;;;1.68;63.36
26083;BME280;13848;49.018;12.078;2023-03-04T10:54:22;98113.38;;;1.70;63.12
26083;BME280;13848;49.018;12.078;2023-03-04T10:57:03;98114.72;;;1.92;63.81
26083;BME280;13848;49.018;12.078;2023-03-04T10:59:42;98110.81;;;2.12;63.90
26083;BME280;13848;49.018;12.078;2023-03-04T11:02:30;98109.63;;;2.32;63.65
26083;BME280;13848;49.018;12.078;2023-03-04T11:05:06;98110.56;;;2.23;63.08
26083;BME280;13848;49.018;12.078;2023-03-04T11:07:41;98097.63;;;2.28;63.11
26083;BME280;13848;49.018;12.078;2023-03-04T11:10:13;98100.94;;;2.30;64.33
26083;BME280;13848;49.018;12.078;2023-03-04T11:12:39;98104.13;;;2.34;62.02
26083;BME280;13848;49.018;12.078;2023-03-04T11:15:19;98101.13;;;2.37;62.38
26083;BME280;13848;49.018;12.078;2023-03-04T11:17:47;98083.94;;;2.23;61.97
26083;BME280;13848;49.018;12.078;2023-03-04T11:20:20;98088.53;;;2.05;62.53
26083;BME280;13848;49.018;12.078;2023-03-04T11:22:50;98080.22;;;2.08;61.93
26083;BME280;13848;49.018;12.078;2023-03-04T11:25:24;98086.34;;;2.08;62.39
26083;BME280;13848;49.018;12.078;2023-03-04T11:27:53;98085.44;;;2.18;61.92
26083;BME280;13848;49.018;12.078;2023-03-04T11:30:41;98091.44;;;1.94;62.08
26083;BME280;13848;49.018;12.078;2023-03-04T11:33:14;98084.25;;;2.20;61.99
26083;BME280;13848;49.018;12.078;2023-03-04T11:35:43;98081.38;;;2.05;62.64
26083;BME280;13848;49.018;12.078;2023-03-04T11:38:16;98077.63;;;2.16;62.25
26083;BME280;13848;49.018;12.078;2023-03-04T11:40:48;98076.16;;;2.30;61.35
26083;BME280;13848;49.018;12.078;2023-03-04T11:43:18;98077.34;;;2.01;61.82
26083;BME280;13848;49.018;12.078;2023-03-04T11:46:04;98071.88;;;2.03;62.33
26083;BME280;13848;49.018;12.078;2023-03-04T11:48:44;98066.63;;;2.19;62.31
26083;BME280;13848;49.018;12.078;2023-03-04T11:51:20;98062.19;;;2.28;61.64
26083;BME280;13848;49.018;12.078;2023-03-04T11:53:58;98063.63;;;2.14;61.94
26083;BME280;13848;49.018;12.078;2023-03-04T11:56:31;98065.16;;;2.25;61.46
26083;BME280;13848;49.018;12.078;2023-03-04T11:59:33;98064.22;;;2.34;61.73
26083;BME280;13848;49.018;12.078;2023-03-04T12:02:17;98054.72;;;2.31;61.62
26083;BME280;13848;49.018;12.078;2023-03-04T12:07:53;98044.31;;;2.46;61.10
26083;BME280;13848;49.018;12.078;2023-03-04T12:10:27;98045.78;;;2.49;61.28
26083;BME280;13848;49.018;12.078;2023-03-04T12:13:18;98040.47;;;2.49;60.76
26083;BME280;13848;49.018;12.078;2023-03-04T12:15:56;98036.50;;;2.53;61.08
26083;BME280;13848;49.018;12.078;2023-03-04T12:18:35;98030.47;;;2.43;61.52
26083;BME280;13848;49.018;12.078;2023-03-04T12:21:16;98027.16;;;2.40;61.63
26083;BME280;13848;49.018;12.078;2023-03-04T12:26:48;98028.81;;;2.42;61.31
26083;BME280;13848;49.018;12.078;2023-03-04T12:29:20;98028.47;;;2.36;61.34
26083;BME280;13848;49.018;12.078;2023-03-04T12:31:56;98015.03;;;2.54;61.50
26083;BME280;13848;49.018;12.078;2023-03-04T12:34:33;98017.22;;;2.51;61.23
26083;BME280;13848;49.018;12.078;2023-03-04T12:37:17;98014.69;;;2.41;61.03
26083;BME280;13848;49.018;12.078;2023-03-04T12:40:00;98011.84;;;2.34;61.68
26083;BME280;13848;49.018;12.078;2023-03-04T12:42:32;98006.53;;;2.43;61.59
26083;BME280;13848;49.018;12.078;2023-03-04T12:45:12;98002.72;;;2.45;61.49
26083;BME280;13848;49.018;12.078;2023-03-04T12:47:46;98002.41;;;2.64;61.24
26083;BME280;13848;49.018;12.078;2023-03-04T12:50:36;98001.19;;;2.43;60.69
26083;BME280;13848;49.018;12.078;2023-03-04T12:53:10;98004.03;;;2.49;60.78
26083;BME280;13848;49.018;12.078;2023-03-04T12:55:43;97993.44;;;2.65;60.99
26083;BME280;13848;49.018;12.078;2023-03-04T12:58:15;98006.22;;;2.46;61.18
26083;BME280;13848;49.018;12.078;2023-03-04T13:00:56;97988.78;;;2.59;61.26
26083;BME280;13848;49.018;12.078;2023-03-04T13:03:32;97994.22;;;2.33;61.12
26083;BME280;13848;49.018;12.078;2023-03-04T13:06:09;97993.25;;;2.59;60.96
26083;BME280;13848;49.018;12.078;2023-03-04T13:08:44;97996.28;;;2.56;60.58
26083;BME280;13848;49.018;12.078;2023-03-04T13:11:37;97998.94;;;2.56;60.87
26083;BME280;13848;49.018;12.078;2023-03-04T13:14:05;98001.91;;;2.45;60.92